createdAt,value
2019-05-20T00:01:31.758Z,99151.38
2019-05-20T00:04:22.139Z,99144.39
2019-05-20T00:07:04.730Z,99140.41
2019-05-20T00:09:55.118Z,99141.64
2019-05-20T00:12:38.468Z,99142.69
2019-05-20T00:15:28.851Z,99139.91
2019-05-20T00:18:12.039Z,99136.29
2019-05-20T00:21:02.345Z,99134.45
2019-05-20T00:23:45.830Z,99129.89
2019-05-20T00:26:36.146Z,99142.99
2019-05-20T00:29:19.479Z,99145.86
2019-05-20T00:32:09.786Z,99150.80
2019-05-20T00:35:13.322Z,99150.07
2019-05-20T00:38:03.686Z,99150.50
2019-05-20T00:40:46.915Z,99150.12
2019-05-20T00:47:05.302Z,99149.04
2019-05-20T00:49:55.661Z,99150.84
2019-05-20T00:52:46.006Z,99142.68
2019-05-20T00:55:29.729Z,99144.35
2019-05-20T01:01:21.904Z,99142.36
2019-05-20T01:04:12.265Z,99143.84
2019-05-20T01:06:55.838Z,99144.01
2019-05-20T01:09:46.221Z,99153.27
2019-05-20T01:12:29.340Z,99152.55
2019-05-20T01:15:19.928Z,99160.48
2019-05-20T01:18:03.379Z,99159.64
2019-05-20T01:23:56.110Z,99156.89
2019-05-20T01:26:46.506Z,99145.62
2019-05-20T01:29:29.650Z,99148.14
2019-05-20T01:32:20.048Z,99147.28
2019-05-20T01:35:03.352Z,99144.86
2019-05-20T01:37:53.744Z,99142.30
2019-05-20T01:40:36.540Z,99133.00
2019-05-20T01:43:26.965Z,99146.58
2019-05-20T01:46:10.430Z,99153.06
2019-05-20T01:49:00.849Z,99145.33
2019-05-20T01:51:43.473Z,99149.86
2019-05-20T01:54:33.902Z,99155.02
2019-05-20T01:57:17.190Z,99157.40
2019-05-20T02:00:28.094Z,99160.03
2019-05-20T02:03:31.075Z,99160.24
2019-05-20T02:06:22.795Z,99168.01
2019-05-20T02:09:13.187Z,99174.36
2019-05-20T02:11:56.502Z,99181.77
2019-05-20T02:18:07.728Z,99179.37
2019-05-20T02:20:51.118Z,99175.61
2019-05-20T02:23:41.532Z,99179.81
2019-05-20T02:26:24.350Z,99171.03
2019-05-20T02:29:14.750Z,99172.83
2019-05-20T02:31:57.538Z,99170.77
2019-05-20T02:34:48.166Z,99170.66
2019-05-20T02:37:30.763Z,99166.08
2019-05-20T02:40:21.187Z,99171.10
2019-05-20T02:43:03.756Z,99174.69
2019-05-20T02:45:54.150Z,99175.80
2019-05-20T02:48:38.518Z,99174.86
2019-05-20T02:51:47.797Z,99173.30
2019-05-20T02:54:31.403Z,99171.39
2019-05-20T02:57:21.822Z,99175.88
2019-05-20T03:00:05.221Z,99171.31
2019-05-20T03:02:55.617Z,99163.27
2019-05-20T03:05:39.070Z,99164.59
2019-05-20T03:08:29.487Z,99167.16
2019-05-20T03:11:13.039Z,99168.98
2019-05-20T03:14:03.559Z,99171.63
2019-05-20T03:16:47.042Z,99167.28
2019-05-20T03:19:37.491Z,99173.30
2019-05-20T03:22:20.805Z,99182.20
2019-05-20T03:25:11.283Z,99186.17
2019-05-20T03:27:54.522Z,99178.70
2019-05-20T03:30:45.307Z,99173.30
2019-05-20T03:33:28.226Z,99180.55
2019-05-20T03:36:18.737Z,99189.42
2019-05-20T03:39:01.801Z,99193.30
2019-05-20T03:41:52.185Z,99195.77
2019-05-20T03:44:35.513Z,99195.42
2019-05-20T03:47:25.881Z,99194.57
2019-05-20T03:50:09.204Z,99201.19
2019-05-20T03:53:13.483Z,99199.00
2019-05-20T03:56:06.450Z,99203.56
2019-05-20T03:58:56.905Z,99202.83
2019-05-20T04:01:40.753Z,99203.52
2019-05-20T04:04:31.181Z,99205.48
2019-05-20T04:07:14.406Z,99215.25
2019-05-20T04:10:05.151Z,99207.41
2019-05-20T04:12:48.017Z,99198.63
2019-05-20T04:15:38.413Z,99211.17
2019-05-20T04:18:21.458Z,99218.51
2019-05-20T04:21:04.269Z,99221.53
2019-05-20T04:23:54.716Z,99223.12
2019-05-20T04:26:37.551Z,99221.59
2019-05-20T04:29:28.034Z,99216.09
2019-05-20T04:32:11.630Z,99211.53
2019-05-20T04:35:19.829Z,99210.47
2019-05-20T04:38:06.328Z,99214.44
2019-05-20T04:40:56.710Z,99208.90
2019-05-20T04:43:39.518Z,99210.13
2019-05-20T04:46:29.941Z,99219.15
2019-05-20T04:49:14.721Z,99216.03
2019-05-20T04:52:05.156Z,99213.39
2019-05-20T04:54:50.229Z,99217.87
2019-05-20T04:57:40.768Z,99218.95
2019-05-20T05:04:13.337Z,99223.56
2019-05-20T05:06:56.853Z,99223.44
2019-05-20T05:09:47.215Z,99228.01
2019-05-20T05:12:34.135Z,99230.70
2019-05-20T05:31:51.808Z,99221.79
2019-05-20T05:44:57.435Z,99235.66
2019-05-20T05:47:40.112Z,99231.69
2019-05-20T05:53:48.778Z,99240.40
2019-05-20T05:56:58.432Z,99230.28
2019-05-20T05:59:41.310Z,99232.48
2019-05-20T06:02:24.919Z,99221.19
2019-05-20T06:05:15.411Z,99217.08
2019-05-20T06:07:58.110Z,99223.64
2019-05-20T06:10:48.491Z,99224.02
2019-05-20T06:13:31.181Z,99235.20
2019-05-20T06:16:36.079Z,99236.06
2019-05-20T06:19:26.179Z,99241.73
2019-05-20T06:22:16.639Z,99240.16
2019-05-20T06:24:59.807Z,99244.85
2019-05-20T06:27:50.187Z,99244.97
2019-05-20T06:30:37.830Z,99245.13
2019-05-20T06:33:31.704Z,99248.37
2019-05-20T06:36:26.398Z,99254.76
2019-05-20T06:40:02.913Z,99254.53
2019-05-20T06:42:52.661Z,99259.22
2019-05-20T06:45:43.065Z,99266.81
2019-05-20T06:48:26.311Z,99267.06
2019-05-20T06:51:16.696Z,99276.96
2019-05-20T06:53:59.307Z,99271.53
2019-05-20T06:56:49.799Z,99277.55
2019-05-20T06:59:32.686Z,99278.05
2019-05-20T07:02:15.565Z,99282.50
2019-05-20T07:08:34.776Z,99277.68
2019-05-20T07:11:25.198Z,99267.28
2019-05-20T07:14:08.571Z,99273.93
2019-05-20T07:16:59.013Z,99270.41
2019-05-20T07:19:45.096Z,99272.47
2019-05-20T07:23:02.737Z,99275.70
2019-05-20T07:26:00.035Z,99272.71
2019-05-20T07:28:50.480Z,99272.34
2019-05-20T07:31:34.539Z,99278.11
2019-05-20T07:34:24.962Z,99280.77
2019-05-20T07:37:08.392Z,99275.36
2019-05-20T07:39:58.830Z,99275.59
2019-05-20T07:42:41.513Z,99279.92
2019-05-20T07:45:57.032Z,99283.19
2019-05-20T07:48:40.521Z,99288.36
2019-05-20T07:55:00.476Z,99292.14
2019-05-20T07:58:14.764Z,99291.39
2019-05-20T08:00:57.463Z,99295.47
2019-05-20T08:03:47.938Z,99289.82
2019-05-20T08:06:31.190Z,99291.87
2019-05-20T08:09:21.633Z,99288.84
2019-05-20T08:12:04.843Z,99293.27
2019-05-20T08:14:55.249Z,99289.87
2019-05-20T08:17:38.129Z,99287.17
2019-05-20T08:20:28.536Z,99290.02
2019-05-20T08:23:11.661Z,99298.88
2019-05-20T08:26:02.059Z,99296.26
2019-05-20T08:28:44.716Z,99301.39
2019-05-20T08:31:35.101Z,99304.19
2019-05-20T08:34:18.224Z,99303.23
2019-05-20T08:37:08.624Z,99300.06
2019-05-20T08:39:51.321Z,99304.75
2019-05-20T08:42:41.727Z,99310.39
2019-05-20T08:45:25.921Z,99320.77
2019-05-20T08:47:57.247Z,99318.39
2019-05-20T08:50:47.606Z,99312.05
2019-05-20T08:53:30.713Z,99311.66
2019-05-20T08:56:21.114Z,99315.25
2019-05-20T08:59:03.729Z,99317.81
2019-05-20T09:01:46.606Z,99317.19
2019-05-20T09:04:36.997Z,99316.74
2019-05-20T09:07:19.613Z,99316.44
2019-05-20T09:10:10.192Z,99313.75
2019-05-20T09:12:53.098Z,99313.23
2019-05-20T09:15:45.423Z,99312.67
2019-05-20T09:18:48.393Z,99312.92
2019-05-20T09:21:38.790Z,99319.27
2019-05-20T09:24:23.638Z,99314.71
2019-05-20T09:27:13.995Z,99309.08
2019-05-20T09:29:57.528Z,99310.66
2019-05-20T09:32:48.038Z,99309.33
2019-05-20T09:35:31.170Z,99313.00
2019-05-20T09:38:21.657Z,99320.36
2019-05-20T09:41:04.904Z,99328.48
2019-05-20T09:43:55.327Z,99327.63
2019-05-20T09:46:38.065Z,99332.38
2019-05-20T09:49:28.491Z,99336.55
2019-05-20T09:52:11.998Z,99335.47
2019-05-20T09:55:02.501Z,99345.68
2019-05-20T09:57:45.331Z,99349.77
2019-05-20T10:00:35.825Z,99345.77
2019-05-20T10:03:18.400Z,99348.19
2019-05-20T10:06:09.045Z,99346.94
2019-05-20T10:09:13.036Z,99348.82
2019-05-20T10:12:03.444Z,99351.25
2019-05-20T10:14:46.168Z,99351.18
2019-05-20T10:17:36.568Z,99352.88
2019-05-20T10:20:19.761Z,99352.10
2019-05-20T10:23:10.147Z,99364.09
2019-05-20T10:25:52.811Z,99365.42
2019-05-20T10:28:47.175Z,99356.89
2019-05-20T10:31:47.298Z,99353.61
2019-05-20T10:34:37.918Z,99346.41
2019-05-20T10:37:20.602Z,99347.86
2019-05-20T10:43:40.282Z,99343.17
2019-05-20T10:46:30.649Z,99341.21
2019-05-20T10:49:13.150Z,99346.77
2019-05-20T10:52:05.364Z,99342.84
2019-05-20T10:55:08.803Z,99347.17
2019-05-20T10:57:59.196Z,99345.69
2019-05-20T11:01:01.795Z,99352.20
2019-05-20T11:03:54.601Z,99356.68
2019-05-20T11:06:44.991Z,99349.17
2019-05-20T11:09:28.302Z,99360.83
2019-05-20T11:12:18.671Z,99362.53
2019-05-20T11:15:02.565Z,99355.28
2019-05-20T11:17:53.167Z,99355.23
2019-05-20T11:20:35.908Z,99358.34
2019-05-20T11:23:26.263Z,99360.94
2019-05-20T11:26:11.184Z,99362.53
2019-05-20T11:29:01.598Z,99363.67
2019-05-20T11:32:10.492Z,99364.73
2019-05-20T11:34:59.002Z,99366.55
2019-05-20T11:37:43.063Z,99365.16
2019-05-20T11:40:53.408Z,99364.95
2019-05-20T11:43:46.424Z,99365.63
2019-05-20T11:46:39.139Z,99368.78
2019-05-20T11:49:22.457Z,99373.77
2019-05-20T11:52:12.805Z,99364.38
2019-05-20T11:54:56.204Z,99363.78
2019-05-20T11:57:46.650Z,99363.56
2019-05-20T12:00:30.155Z,99372.62
2019-05-20T12:03:20.543Z,99370.33
2019-05-20T12:06:04.318Z,99369.59
2019-05-20T12:08:55.008Z,99370.84
2019-05-20T12:11:38.175Z,99376.66
2019-05-20T12:14:28.612Z,99377.55
2019-05-20T12:17:12.181Z,99379.25
2019-05-20T12:20:03.826Z,99379.09
2019-05-20T12:23:07.357Z,99379.44
2019-05-20T12:25:57.768Z,99369.70
2019-05-20T12:28:40.763Z,99371.19
2019-05-20T12:31:31.192Z,99362.64
2019-05-20T12:34:14.151Z,99366.52
2019-05-20T12:37:04.656Z,99370.15
2019-05-20T12:40:06.421Z,99365.75
2019-05-20T12:43:00.657Z,99361.60
2019-05-20T12:45:51.067Z,99360.08
2019-05-20T12:48:34.337Z,99361.86
2019-05-20T12:51:24.790Z,99362.92
2019-05-20T12:54:07.667Z,99367.73
2019-05-20T12:56:58.141Z,99362.82
2019-05-20T12:59:41.572Z,99366.77
2019-05-20T13:02:31.960Z,99361.45
2019-05-20T13:05:15.618Z,99361.03
2019-05-20T13:08:06.048Z,99358.78
2019-05-20T13:10:49.353Z,99361.22
2019-05-20T13:13:39.703Z,99363.55
2019-05-20T13:16:22.916Z,99358.56
2019-05-20T13:19:13.347Z,99359.59
2019-05-20T13:22:03.868Z,99358.53
2019-05-20T13:24:46.838Z,99354.75
2019-05-20T13:27:37.196Z,99350.24
2019-05-20T13:30:21.001Z,99348.98
2019-05-20T13:33:11.367Z,99351.80
2019-05-20T13:36:01.759Z,99359.83
2019-05-20T13:38:44.704Z,99360.19
2019-05-20T13:41:35.117Z,99364.75
2019-05-20T13:44:17.673Z,99362.71
2019-05-20T13:47:08.058Z,99367.89
2019-05-20T13:49:50.838Z,99382.84
2019-05-20T13:52:41.241Z,99384.42
2019-05-20T13:55:24.031Z,99379.44
2019-05-20T13:58:14.386Z,99376.02
2019-05-20T14:00:57.184Z,99377.69
2019-05-20T14:03:47.574Z,99368.44
2019-05-20T14:06:30.947Z,99379.12
2019-05-20T14:09:21.340Z,99381.86
2019-05-20T14:12:24.630Z,99369.36
2019-05-20T14:15:15.234Z,99370.44
2019-05-20T14:17:58.535Z,99370.22
2019-05-20T14:20:48.859Z,99357.49
2019-05-20T14:23:31.905Z,99371.62
2019-05-20T14:29:28.963Z,99358.02
2019-05-20T14:32:19.340Z,99360.41
2019-05-20T14:35:02.878Z,99353.17
2019-05-20T14:37:53.272Z,99352.14
2019-05-20T14:40:35.882Z,99351.50
2019-05-20T14:43:26.362Z,99353.39
2019-05-20T14:46:09.948Z,99350.22
2019-05-20T14:49:02.530Z,99349.11
2019-05-20T14:52:05.323Z,99344.78
2019-05-20T14:54:55.878Z,99349.95
2019-05-20T14:57:38.571Z,99349.66
2019-05-20T15:00:28.948Z,99353.06
2019-05-20T15:03:12.245Z,99358.17
2019-05-20T15:06:02.665Z,99349.95
2019-05-20T15:08:45.412Z,99355.75
2019-05-20T15:11:38.569Z,99357.93
2019-05-20T15:14:42.513Z,99359.13
2019-05-20T15:17:32.429Z,99352.94
2019-05-20T15:20:15.283Z,99357.02
2019-05-20T15:23:05.644Z,99343.32
2019-05-20T15:25:48.736Z,99347.31
2019-05-20T15:28:39.158Z,99345.43
2019-05-20T15:31:22.467Z,99349.12
2019-05-20T15:33:53.845Z,99350.28
2019-05-20T15:36:44.351Z,99348.02
2019-05-20T15:39:34.761Z,99349.23
2019-05-20T15:42:17.325Z,99347.98
2019-05-20T15:48:37.410Z,99352.94
2019-05-20T15:51:27.814Z,99343.47
2019-05-20T15:54:18.235Z,99343.84
2019-05-20T15:57:01.337Z,99333.27
2019-05-20T15:59:51.727Z,99337.63
2019-05-20T16:02:34.574Z,99334.74
2019-05-20T16:05:25.024Z,99330.93
2019-05-20T16:08:08.497Z,99334.59
2019-05-20T16:10:58.910Z,99332.55
2019-05-20T16:13:41.423Z,99334.03
2019-05-20T16:16:31.829Z,99322.38
2019-05-20T16:19:14.428Z,99323.34
2019-05-20T16:22:04.840Z,99332.27
2019-05-20T16:24:47.839Z,99332.03
2019-05-20T16:27:38.225Z,99334.80
2019-05-20T16:30:22.727Z,99340.97
2019-05-20T16:33:05.606Z,99347.55
2019-05-20T16:35:56.830Z,99349.28
2019-05-20T16:38:39.992Z,99348.12
2019-05-20T16:41:31.926Z,99346.64
2019-05-20T16:44:14.604Z,99353.36
2019-05-20T16:47:05.086Z,99351.80
2019-05-20T16:49:48.298Z,99357.46
2019-05-20T16:52:38.694Z,99358.45
2019-05-20T16:55:22.035Z,99360.02
2019-05-20T16:58:13.250Z,99360.27
2019-05-20T17:00:56.192Z,99362.22
2019-05-20T17:03:46.612Z,99362.70
2019-05-20T17:06:29.932Z,99364.17
2019-05-20T17:09:20.270Z,99365.89
2019-05-20T17:12:03.144Z,99363.25
2019-05-20T17:14:53.472Z,99372.17
2019-05-20T17:17:36.744Z,99364.20
2019-05-20T17:20:27.160Z,99361.20
2019-05-20T17:23:10.247Z,99359.81
2019-05-20T17:26:00.644Z,99348.45
2019-05-20T17:28:44.071Z,99352.53
2019-05-20T17:31:34.550Z,99360.32
2019-05-20T17:34:19.651Z,99351.12
2019-05-20T17:37:22.439Z,99358.14
2019-05-20T17:40:15.205Z,99366.58
2019-05-20T17:43:05.636Z,99382.32
2019-05-20T17:45:48.878Z,99378.10
2019-05-20T17:48:39.217Z,99384.37
2019-05-20T17:51:22.547Z,99389.28
2019-05-20T17:54:05.638Z,99387.44
2019-05-20T17:56:56.031Z,99395.65
2019-05-20T17:59:39.292Z,99397.35
2019-05-20T18:02:29.707Z,99400.83
2019-05-20T18:05:14.777Z,99396.18
2019-05-20T18:08:04.867Z,99406.83
2019-05-20T18:10:47.831Z,99410.81
2019-05-20T18:13:38.341Z,99416.05
2019-05-20T18:16:21.942Z,99407.44
2019-05-20T18:19:12.419Z,99410.02
2019-05-20T18:21:55.121Z,99409.64
2019-05-20T18:24:45.579Z,99401.32
2019-05-20T18:27:28.373Z,99405.17
2019-05-20T18:33:54.663Z,99413.87
2019-05-20T18:36:37.654Z,99405.09
2019-05-20T18:39:20.284Z,99406.70
2019-05-20T18:42:10.699Z,99404.91
2019-05-20T18:44:53.869Z,99404.81
2019-05-20T18:47:44.329Z,99416.41
2019-05-20T18:50:27.939Z,99417.16
2019-05-20T18:53:18.385Z,99415.92
2019-05-20T18:56:01.750Z,99422.29
2019-05-20T18:58:52.304Z,99422.66
2019-05-20T19:01:55.752Z,99424.47
2019-05-20T19:04:47.176Z,99416.20
2019-05-20T19:07:37.599Z,99414.39
2019-05-20T19:10:20.554Z,99420.19
2019-05-20T19:13:10.931Z,99423.56
2019-05-20T19:15:53.657Z,99423.56
2019-05-20T19:18:44.098Z,99421.98
2019-05-20T19:21:27.151Z,99413.77
2019-05-20T19:24:17.704Z,99414.25
2019-05-20T19:27:02.475Z,99414.83
2019-05-20T19:29:52.868Z,99411.69
2019-05-20T19:32:35.796Z,99415.42
2019-05-20T19:35:26.191Z,99413.72
2019-05-20T19:38:09.353Z,99419.05
2019-05-20T19:40:59.725Z,99418.42
2019-05-20T19:43:42.986Z,99417.48
2019-05-20T19:46:33.359Z,99413.34
2019-05-20T19:49:16.012Z,99419.66
2019-05-20T19:52:06.377Z,99428.27
2019-05-20T19:54:49.365Z,99434.16
2019-05-20T19:57:39.830Z,99433.20
2019-05-20T20:00:22.650Z,99433.45
2019-05-20T20:03:13.134Z,99434.83
2019-05-20T20:05:56.483Z,99432.88
2019-05-20T20:08:46.958Z,99439.66
2019-05-20T20:11:30.555Z,99438.44
2019-05-20T20:14:20.981Z,99443.77
2019-05-20T20:17:04.131Z,99437.11
2019-05-20T20:19:58.103Z,99442.33
2019-05-20T20:22:59.915Z,99435.34
2019-05-20T20:25:50.520Z,99439.53
2019-05-20T20:28:33.974Z,99446.94
2019-05-20T20:31:24.378Z,99446.52
2019-05-20T20:34:07.124Z,99454.03
2019-05-20T20:36:50.185Z,99448.03
2019-05-20T20:39:40.658Z,99446.80
2019-05-20T20:42:23.849Z,99449.97
2019-05-20T20:45:14.938Z,99456.06
2019-05-20T20:47:58.017Z,99444.92
2019-05-20T20:53:57.311Z,99456.78
2019-05-20T20:56:47.732Z,99457.28
2019-05-20T20:59:31.186Z,99453.29
2019-05-20T21:02:21.581Z,99459.22
2019-05-20T21:08:27.736Z,99458.25
2019-05-20T21:11:10.699Z,99458.63
2019-05-20T21:14:01.121Z,99453.20
2019-05-20T21:16:43.928Z,99452.85
2019-05-20T21:19:34.375Z,99451.04
2019-05-20T21:22:16.976Z,99443.20
2019-05-20T21:25:07.597Z,99450.44
2019-05-20T21:27:50.134Z,99450.30
2019-05-20T21:30:40.592Z,99445.23
2019-05-20T21:33:23.755Z,99450.94
2019-05-20T21:36:14.221Z,99454.29
2019-05-20T21:38:57.128Z,99457.93
2019-05-20T21:41:47.576Z,99452.98
2019-05-20T21:44:30.690Z,99440.41
2019-05-20T21:47:21.214Z,99449.59
2019-05-20T21:50:04.483Z,99449.56
2019-05-20T21:52:54.934Z,99455.58
2019-05-20T21:55:38.776Z,99463.55
2019-05-20T21:58:29.263Z,99459.19
2019-05-20T22:01:12.861Z,99461.84
2019-05-20T22:04:03.334Z,99460.17
2019-05-20T22:06:53.164Z,99466.56
2019-05-20T22:09:31.303Z,99460.66
2019-05-20T22:12:21.719Z,99458.70
2019-05-20T22:15:12.526Z,99459.18
2019-05-20T22:18:02.975Z,99460.26
2019-05-20T22:20:46.223Z,99461.46
2019-05-20T22:26:43.235Z,99463.86
2019-05-20T22:29:33.591Z,99463.73
2019-05-20T22:32:16.612Z,99467.12
2019-05-20T22:34:59.839Z,99474.09
2019-05-20T22:37:50.353Z,99469.89
2019-05-20T22:40:33.762Z,99470.62
2019-05-20T22:43:25.159Z,99473.28
2019-05-20T22:46:08.485Z,99474.70
2019-05-20T22:48:58.970Z,99473.47
2019-05-20T22:51:42.003Z,99462.86
2019-05-20T22:54:32.443Z,99471.80
2019-05-20T22:57:15.100Z,99469.99
2019-05-20T23:00:05.541Z,99473.72
2019-05-20T23:02:48.778Z,99476.12
2019-05-20T23:05:39.128Z,99473.09
2019-05-20T23:08:22.874Z,99482.15
2019-05-20T23:11:13.203Z,99471.03
2019-05-20T23:13:56.035Z,99479.25
2019-05-20T23:16:46.394Z,99476.97
2019-05-20T23:19:29.455Z,99484.89
2019-05-20T23:22:19.896Z,99488.96
2019-05-20T23:25:02.487Z,99483.91
2019-05-20T23:27:52.920Z,99476.30
2019-05-20T23:30:43.360Z,99479.75
2019-05-20T23:33:26.653Z,99484.33
2019-05-20T23:36:09.387Z,99476.33
2019-05-20T23:39:19.706Z,99477.98
2019-05-20T23:42:23.121Z,99478.33
2019-05-20T23:45:13.851Z,99479.14
2019-05-20T23:47:56.873Z,99474.30
2019-05-20T23:50:47.309Z,99474.13
2019-05-20T23:53:30.224Z,99468.95
2019-05-20T23:56:20.662Z,99466.73
2019-05-20T23:59:03.770Z,99466.59
